Time;durP1;ratioP1;P1;durP2;ratioP2;P2;SDS_P1;SDS_P2;PMS_P1;PMS_P2;Temp;Humidity;BMP_temperature;BMP_pressure;BME280_temperature;BME280_humidity;BME280_pressure;Samples;Min_cycle;Max_cycle;Signal;HPM_P1;HPM_P2
2020/12/01 00:00:26;;;;;;;4.30;3.90;;;17.00;55.20;;;;;;5044347;28;20933;-61
2020/12/01 00:02:52;;;;;;;4.28;3.60;;;17.00;55.20;;;;;;5044142;28;20611;-61
2020/12/01 00:05:18;;;;;;;3.78;3.47;;;17.00;55.30;;;;;;5044372;28;20186;-61
2020/12/01 00:07:44;;;;;;;4.18;3.70;;;17.00;55.30;;;;;;5044303;28;20221;-60
2020/12/01 00:10:12;;;;;;;4.38;3.80;;;17.00;55.30;;;;;;5025789;28;20187;-61
2020/12/01 00:12:40;;;;;;;4.07;3.78;;;16.90;55.20;;;;;;5044125;28;20171;-61
2020/12/01 00:15:06;;;;;;;4.85;3.50;;;16.90;55.30;;;;;;5044294;28;20182;-61
2020/12/01 00:17:32;;;;;;;4.10;3.70;;;16.90;55.30;;;;;;5044383;28;20211;-61
2020/12/01 00:19:57;;;;;;;3.92;3.35;;;16.90;55.30;;;;;;5044384;28;20202;-62
2020/12/01 00:22:23;;;;;;;3.42;3.13;;;16.90;55.30;;;;;;5043900;28;20288;-61
2020/12/01 00:24:48;;;;;;;4.03;3.20;;;16.90;55.30;;;;;;5044211;28;20182;-61
2020/12/01 00:27:14;;;;;;;5.30;3.78;;;16.80;55.30;;;;;;5043958;28;20191;-60
2020/12/01 00:29:39;;;;;;;4.80;3.92;;;16.90;55.40;;;;;;5043897;28;20190;-61
2020/12/01 00:32:05;;;;;;;3.63;3.33;;;16.80;55.30;;;;;;5044132;28;21145;-60
2020/12/01 00:34:31;;;;;;;3.20;2.90;;;16.80;55.30;;;;;;5044134;28;20379;-60
2020/12/01 00:36:57;;;;;;;3.58;3.28;;;16.80;55.40;;;;;;5043771;28;20180;-60
2020/12/01 00:39:22;;;;;;;3.97;3.42;;;16.80;55.40;;;;;;5044021;28;20285;-61
2020/12/01 00:41:50;;;;;;;3.72;3.42;;;16.80;55.40;;;;;;5043644;28;20287;-61
2020/12/01 00:44:16;;;;;;;3.83;3.53;;;16.80;55.40;;;;;;5044075;28;20183;-62
2020/12/01 00:46:41;;;;;;;3.88;3.50;;;16.80;55.40;;;;;;5043745;28;20225;-62
2020/12/01 00:49:07;;;;;;;3.30;3.00;;;16.80;55.40;;;;;;5043700;28;20262;-62
2020/12/01 00:51:33;;;;;;;3.30;3.00;;;16.70;55.40;;;;;;5043558;28;20172;-62
2020/12/01 00:53:58;;;;;;;3.35;3.05;;;16.70;55.40;;;;;;5043677;28;20282;-62
2020/12/01 00:56:24;;;;;;;3.83;3.53;;;16.70;55.50;;;;;;5043720;28;20199;-62
2020/12/01 00:58:50;;;;;;;4.05;3.65;;;16.70;55.40;;;;;;5043868;28;20179;-61
2020/12/01 01:01:15;;;;;;;3.25;2.92;;;16.70;55.40;;;;;;5043494;28;20179;-61
2020/12/01 01:03:41;;;;;;;3.80;3.50;;;16.70;55.40;;;;;;5025830;28;20199;-61
2020/12/01 01:06:10;;;;;;;3.30;3.03;;;16.70;55.50;;;;;;5043487;28;20229;-61
2020/12/01 01:08:37;;;;;;;4.20;3.30;;;16.70;55.50;;;;;;5043818;28;20271;-60
2020/12/01 01:11:03;;;;;;;3.53;3.20;;;16.70;55.50;;;;;;5047547;28;20171;-61
2020/12/01 01:13:28;;;;;;;3.58;3.30;;;16.60;55.40;;;;;;5047291;28;20181;-61
2020/12/01 01:15:54;;;;;;;3.83;3.53;;;16.70;55.50;;;;;;5047105;28;20175;-61
2020/12/01 01:18:19;;;;;;;3.42;3.03;;;16.60;55.40;;;;;;5047362;28;20171;-61
2020/12/01 01:20:45;;;;;;;3.35;3.05;;;16.60;55.40;;;;;;5047071;28;20171;-61
2020/12/01 01:23:10;;;;;;;5.13;2.80;;;16.60;55.50;;;;;;5046976;28;20685;-61
2020/12/01 01:25:36;;;;;;;3.30;3.00;;;16.60;55.50;;;;;;5047014;28;20531;-62
2020/12/01 01:28:01;;;;;;;3.22;3.03;;;16.60;55.50;;;;;;5047119;28;20270;-61
2020/12/01 01:30:27;;;;;;;3.42;3.13;;;16.60;55.50;;;;;;5046955;28;20176;-61
2020/12/01 01:32:52;;;;;;;3.20;2.90;;;16.60;55.50;;;;;;5046647;28;20187;-62
2020/12/01 01:35:18;;;;;;;3.33;3.03;;;16.60;55.60;;;;;;5046932;28;20182;-61
2020/12/01 01:37:45;;;;;;;2.90;2.70;;;16.60;55.60;;;;;;5047040;28;20250;-61
2020/12/01 01:40:19;;;;;;;3.10;2.90;;;16.50;55.60;;;;;;5046992;28;20182;-62
2020/12/01 01:42:45;;;;;;;3.03;2.83;;;16.60;55.60;;;;;;5046894;28;20672;-63
2020/12/01 01:45:11;;;;;;;3.22;2.92;;;16.50;55.60;;;;;;5046795;28;20198;-62
2020/12/01 01:47:36;;;;;;;3.38;3.05;;;16.50;55.60;;;;;;5046621;28;20182;-62
2020/12/01 01:50:22;;;;;;;2.83;2.63;;;16.50;55.60;;;;;;5029016;28;20655;-61
2020/12/01 01:52:49;;;;;;;3.45;3.15;;;16.50;55.60;;;;;;5031373;28;20179;-61
2020/12/01 01:55:25;;;;;;;2.95;2.75;;;16.50;55.60;;;;;;5046480;28;20217;-62
2020/12/01 01:57:53;;;;;;;3.15;2.85;;;16.50;55.60;;;;;;5013818;28;20182;-62
2020/12/01 02:00:56;;;;;;;2.83;2.50;;;16.50;55.60;;;;;;5012623;28;20184;-60
2020/12/01 02:03:51;;;;;;;2.95;2.75;;;16.50;55.60;;;;;;5030853;28;20229;-62
2020/12/01 02:06:17;;;;;;;2.92;2.72;;;16.50;55.60;;;;;;5037837;28;20199;-60
2020/12/01 02:08:43;;;;;;;2.83;2.63;;;16.40;55.60;;;;;;5046347;28;20916;-61
2020/12/01 02:11:09;;;;;;;2.90;2.70;;;16.40;55.60;;;;;;5012174;28;20172;-61
2020/12/01 02:13:44;;;;;;;2.60;2.40;;;16.40;55.60;;;;;;5028479;28;20175;-62
2020/12/01 02:16:10;;;;;;;3.20;2.90;;;16.40;55.70;;;;;;5012182;28;20171;-62
2020/12/01 02:18:36;;;;;;;3.35;3.05;;;16.40;55.60;;;;;;5046237;28;20195;-61
2020/12/01 02:21:24;;;;;;;3.00;2.80;;;16.40;55.70;;;;;;5046128;28;20175;-61
2020/12/01 02:23:49;;;;;;;3.00;2.80;;;16.40;55.70;;;;;;5030778;28;20230;-61
2020/12/01 02:26:15;;;;;;;3.13;2.83;;;16.40;55.70;;;;;;5046059;28;20175;-60
2020/12/01 02:28:40;;;;;;;2.92;2.67;;;16.30;55.70;;;;;;5046058;28;20175;-60
2020/12/01 02:31:06;;;;;;;3.05;2.85;;;16.30;55.70;;;;;;5045983;28;20314;-60
2020/12/01 02:33:31;;;;;;;3.10;2.90;;;16.30;55.70;;;;;;5045803;28;20168;-60
2020/12/01 02:35:57;;;;;;;2.83;2.63;;;16.30;55.70;;;;;;5045823;28;20168;-61
2020/12/01 02:38:22;;;;;;;2.70;2.40;;;16.40;55.70;;;;;;5027801;28;20232;-61
2020/12/01 02:40:48;;;;;;;2.60;2.40;;;16.30;55.70;;;;;;5045950;28;20309;-61
2020/12/01 02:43:14;;;;;;;2.17;1.98;;;16.30;55.70;;;;;;5045495;28;20672;-61
2020/12/01 02:45:39;;;;;;;2.35;2.15;;;16.30;55.80;;;;;;5045668;28;20544;-62
2020/12/01 02:48:05;;;;;;;3.05;2.75;;;16.30;55.80;;;;;;5045274;28;20258;-61
2020/12/01 02:50:30;;;;;;;2.70;2.25;;;16.30;55.80;;;;;;5045610;28;20636;-61
2020/12/01 02:52:56;;;;;;;2.45;2.25;;;16.30;55.80;;;;;;5045743;28;20214;-60
2020/12/01 02:55:21;;;;;;;3.35;3.05;;;16.30;55.80;;;;;;5045509;28;20183;-60
2020/12/01 02:57:47;;;;;;;2.45;2.17;;;16.20;55.70;;;;;;5044960;28;20176;-60
2020/12/01 03:00:12;;;;;;;2.90;2.60;;;16.20;55.70;;;;;;5045276;28;20175;-61
2020/12/01 03:02:38;;;;;;;2.42;2.22;;;16.20;55.70;;;;;;5045442;28;20203;-59
2020/12/01 03:05:03;;;;;;;2.50;2.30;;;16.20;55.70;;;;;;5045443;28;20604;-60
2020/12/01 03:07:29;;;;;;;2.47;2.28;;;16.30;55.80;;;;;;5045233;28;20544;-59
2020/12/01 03:09:55;;;;;;;2.58;2.38;;;16.20;55.70;;;;;;5045114;28;20175;-60
2020/12/01 03:12:20;;;;;;;2.55;2.33;;;16.20;55.70;;;;;;5045347;28;20179;-61
2020/12/01 03:14:46;;;;;;;3.50;2.45;;;16.20;55.80;;;;;;5045151;28;20645;-60
2020/12/01 03:17:11;;;;;;;2.83;2.53;;;16.20;55.80;;;;;;5045259;28;20190;-62
2020/12/01 03:19:37;;;;;;;2.80;2.35;;;16.20;55.90;;;;;;5045226;28;20186;-61
2020/12/01 03:22:03;;;;;;;2.95;2.28;;;16.20;55.80;;;;;;5044881;28;20234;-61
2020/12/01 03:24:28;;;;;;;2.60;2.33;;;16.20;55.80;;;;;;5044839;28;20213;-61
2020/12/01 03:26:54;;;;;;;2.17;1.98;;;16.20;55.80;;;;;;5045038;28;20171;-60
2020/12/01 03:29:19;;;;;;;3.15;2.67;;;16.20;55.80;;;;;;5044999;28;20186;-60
2020/12/01 03:31:45;;;;;;;2.25;2.10;;;16.20;55.80;;;;;;5044045;28;20274;-60
2020/12/01 03:34:11;;;;;;;2.60;1.92;;;16.10;55.80;;;;;;5044887;28;20945;-60
2020/12/01 03:36:36;;;;;;;2.35;2.15;;;16.10;55.80;;;;;;5044989;28;20199;-61
2020/12/01 03:39:02;;;;;;;3.03;2.00;;;16.10;55.90;;;;;;5044516;28;20215;-61
2020/12/01 03:41:28;;;;;;;2.30;2.10;;;16.10;55.80;;;;;;5026975;28;20954;-62
2020/12/01 03:43:53;;;;;;;2.33;2.00;;;16.10;55.90;;;;;;5044554;28;20218;-61
2020/12/01 03:46:19;;;;;;;2.63;2.13;;;16.10;55.90;;;;;;5044352;28;20186;-62
2020/12/01 03:48:45;;;;;;;2.53;2.10;;;16.10;55.90;;;;;;5044433;28;20175;-62
2020/12/01 03:51:10;;;;;;;2.58;2.00;;;16.10;55.90;;;;;;5044145;28;20179;-61
2020/12/01 03:53:36;;;;;;;2.00;1.90;;;16.10;55.90;;;;;;5044270;28;20183;-61
2020/12/01 03:56:01;;;;;;;2.30;2.10;;;16.10;55.90;;;;;;5044523;28;20185;-61
2020/12/01 03:58:27;;;;;;;2.90;2.17;;;16.00;55.80;;;;;;5026619;28;20286;-61
2020/12/01 04:00:52;;;;;;;2.67;2.10;;;16.00;55.80;;;;;;5044439;28;20186;-61
2020/12/01 04:03:18;;;;;;;2.15;1.95;;;16.00;55.80;;;;;;5044052;28;20544;-61
2020/12/01 04:05:44;;;;;;;2.67;2.00;;;16.10;55.90;;;;;;5044299;28;20197;-60
2020/12/01 04:08:10;;;;;;;2.50;2.30;;;16.00;55.80;;;;;;5044013;28;20186;-60
2020/12/01 04:10:35;;;;;;;3.58;2.20;;;16.00;55.80;;;;;;5044058;28;20178;-60
2020/12/01 04:13:01;;;;;;;2.25;2.05;;;16.00;55.90;;;;;;5044068;28;20175;-60
2020/12/01 04:15:26;;;;;;;2.00;1.80;;;16.00;55.80;;;;;;5043982;28;20655;-61
2020/12/01 04:17:52;;;;;;;2.60;2.15;;;16.00;55.90;;;;;;5043898;28;20189;-61
2020/12/01 04:20:18;;;;;;;2.20;1.80;;;16.00;55.90;;;;;;5044243;28;20530;-61
2020/12/01 04:22:44;;;;;;;2.03;1.80;;;16.00;55.90;;;;;;5043905;28;20214;-61
2020/12/01 04:25:10;;;;;;;1.95;1.65;;;16.00;55.90;;;;;;5044250;28;20176;-60
2020/12/01 04:27:36;;;;;;;2.53;1.90;;;16.00;55.90;;;;;;5043921;28;20178;-60
2020/12/01 04:30:03;;;;;;;2.90;1.70;;;16.00;55.90;;;;;;5044144;28;20167;-60
2020/12/01 04:32:29;;;;;;;2.38;2.03;;;15.90;55.80;;;;;;5044124;28;20171;-60
2020/12/01 04:34:54;;;;;;;2.67;2.25;;;16.00;55.90;;;;;;5043867;28;20175;-60
2020/12/01 04:37:20;;;;;;;1.70;1.60;;;16.00;55.90;;;;;;5043998;28;20262;-61
2020/12/01 04:39:45;;;;;;;1.88;1.70;;;16.00;55.90;;;;;;5044290;28;20254;-61
2020/12/01 04:42:18;;;;;;;2.20;1.80;;;16.00;56.00;;;;;;5043980;28;20190;-61
2020/12/01 04:45:15;;;;;;;1.85;1.65;;;15.90;56.00;;;;;;5013774;28;20248;-61
2020/12/01 04:47:57;;;;;;;2.22;1.65;;;15.90;55.90;;;;;;5032370;28;20245;-61
2020/12/01 04:50:51;;;;;;;2.08;1.70;;;15.90;55.90;;;;;;5029487;28;20628;-61
2020/12/01 04:53:37;;;;;;;1.92;1.77;;;15.90;56.00;;;;;;5026487;28;20249;-60
2020/12/01 04:56:24;;;;;;;2.35;2.00;;;15.90;56.00;;;;;;5047413;28;21096;-61
2020/12/01 04:59:12;;;;;;;2.70;2.20;;;15.90;56.00;;;;;;5047340;28;20206;-61
2020/12/01 05:01:50;;;;;;;1.88;1.60;;;15.90;56.00;;;;;;5047851;28;20179;-61
2020/12/01 05:04:26;;;;;;;1.92;1.80;;;15.90;56.00;;;;;;5047310;28;20209;-61
2020/12/01 05:07:06;;;;;;;2.20;1.58;;;15.90;56.00;;;;;;5031047;28;20207;-59
2020/12/01 05:09:43;;;;;;;2.17;1.85;;;15.80;55.90;;;;;;5031724;28;20174;-60
2020/12/01 05:12:39;;;;;;;1.77;1.67;;;15.90;56.00;;;;;;5047100;28;20178;-60
2020/12/01 05:15:23;;;;;;;2.10;1.80;;;15.90;56.00;;;;;;5020692;28;20942;-60
2020/12/01 05:17:55;;;;;;;1.77;1.48;;;15.80;56.00;;;;;;5047553;28;20203;-61
2020/12/01 05:20:20;;;;;;;1.63;1.45;;;15.80;55.90;;;;;;5029458;28;20163;-61
2020/12/01 05:22:51;;;;;;;2.60;1.85;;;15.80;56.00;;;;;;5047141;28;20622;-62
2020/12/01 05:25:30;;;;;;;1.63;1.50;;;15.80;55.90;;;;;;5046613;28;20186;-60
2020/12/01 05:28:21;;;;;;;1.77;1.67;;;15.80;56.00;;;;;;5047355;28;20580;-60
2020/12/01 05:30:56;;;;;;;2.22;1.95;;;15.80;56.00;;;;;;5042020;28;20270;-59
2020/12/01 05:33:27;;;;;;;1.63;1.52;;;15.80;56.00;;;;;;5030917;28;20190;-61
2020/12/01 05:36:06;;;;;;;1.73;1.63;;;15.80;56.00;;;;;;5047253;28;20202;-60
2020/12/01 05:38:32;;;;;;;2.25;1.27;;;15.80;56.00;;;;;;5046906;28;20175;-60
2020/12/01 05:41:17;;;;;;;1.63;1.50;;;15.80;56.00;;;;;;5012837;28;20171;-61
2020/12/01 05:43:43;;;;;;;2.50;1.50;;;15.80;56.00;;;;;;5014422;28;20293;-61
2020/12/01 05:46:30;;;;;;;2.03;1.80;;;15.70;56.00;;;;;;5012710;28;20266;-61
2020/12/01 05:48:57;;;;;;;1.50;1.40;;;15.70;56.00;;;;;;5029242;28;20206;-60
2020/12/01 05:51:34;;;;;;;1.50;1.40;;;15.80;56.00;;;;;;5047141;28;20300;-60
2020/12/01 05:54:00;;;;;;;2.08;1.88;;;15.70;56.00;;;;;;5046353;28;20264;-61
2020/12/01 05:56:26;;;;;;;1.40;1.30;;;15.70;56.00;;;;;;5045670;28;20203;-61
2020/12/01 05:59:05;;;;;;;2.13;1.63;;;15.70;56.00;;;;;;5046466;28;20229;-61
2020/12/01 06:01:40;;;;;;;1.60;1.30;;;15.70;56.00;;;;;;5046149;28;20171;-60
2020/12/01 06:04:14;;;;;;;2.13;1.63;;;15.80;56.10;;;;;;5012424;28;20210;-60
2020/12/01 06:07:00;;;;;;;1.98;1.73;;;15.80;56.00;;;;;;5046130;28;20202;-59
2020/12/01 06:09:37;;;;;;;1.55;1.45;;;15.90;56.20;;;;;;5046471;28;20189;-60
2020/12/01 06:12:08;;;;;;;2.20;1.50;;;16.20;56.10;;;;;;5028582;28;20177;-61
2020/12/01 06:14:38;;;;;;;2.03;1.38;;;16.50;55.90;;;;;;5012501;28;20190;-61
2020/12/01 06:17:40;;;;;;;1.33;1.23;;;16.80;55.10;;;;;;5028612;28;20551;-61
2020/12/01 06:20:20;;;;;;;1.60;1.27;;;17.30;54.40;;;;;;4992041;28;20552;-61
2020/12/01 06:23:23;;;;;;;1.88;1.20;;;17.70;53.60;;;;;;4996285;28;20219;-61
2020/12/01 06:26:03;;;;;;;1.20;1.10;;;18.00;52.90;;;;;;5045974;28;20185;-61
2020/12/01 06:28:31;;;;;;;1.02;1.00;;;18.20;52.50;;;;;;5028198;28;20701;-61
2020/12/01 06:31:10;;;;;;;1.20;1.10;;;18.40;52.20;;;;;;5046137;28;20638;-61
2020/12/01 06:34:09;;;;;;;1.83;1.25;;;18.60;51.90;;;;;;5012896;28;20182;-61
2020/12/01 06:36:53;;;;;;;1.65;1.10;;;18.70;51.70;;;;;;5028162;28;20182;-62
2020/12/01 06:39:38;;;;;;;1.70;1.20;;;18.80;51.70;;;;;;5046065;28;20175;-62
2020/12/01 06:42:17;;;;;;;1.27;1.17;;;18.80;51.70;;;;;;5027603;28;20183;-60
2020/12/01 06:44:45;;;;;;;1.52;1.33;;;18.80;51.80;;;;;;5012405;28;20203;-61
2020/12/01 06:47:11;;;;;;;1.20;1.10;;;18.80;51.80;;;;;;5045778;28;20167;-61
2020/12/01 06:49:36;;;;;;;1.38;1.10;;;18.70;51.80;;;;;;5027729;28;20647;-62
2020/12/01 06:52:15;;;;;;;1.08;0.98;;;18.80;51.90;;;;;;5027763;28;20171;-61
2020/12/01 06:54:51;;;;;;;1.25;1.15;;;18.70;52.00;;;;;;5045549;28;20952;-61
2020/12/01 06:57:30;;;;;;;1.50;1.40;;;18.70;52.00;;;;;;5045342;28;20171;-62
2020/12/01 06:59:56;;;;;;;1.20;1.10;;;18.70;52.10;;;;;;5045451;28;20179;-61
2020/12/01 07:02:21;;;;;;;1.50;1.40;;;18.70;52.20;;;;;;5045119;28;20248;-61
2020/12/01 07:04:47;;;;;;;1.38;1.27;;;18.60;52.20;;;;;;5045345;28;20190;-61
2020/12/01 07:07:29;;;;;;;1.10;1.00;;;18.60;52.30;;;;;;5043985;28;20171;-60
2020/12/01 07:09:55;;;;;;;1.55;1.30;;;18.60;52.30;;;;;;5027905;28;20171;-61
2020/12/01 07:12:35;;;;;;;1.70;1.17;;;18.50;52.30;;;;;;5045106;28;20989;-61
2020/12/01 07:15:02;;;;;;;1.20;0.90;;;18.60;52.40;;;;;;5027417;28;20182;-62
2020/12/01 07:17:29;;;;;;;1.73;1.23;;;18.50;52.50;;;;;;5045183;28;20644;-62
2020/12/01 07:20:18;;;;;;;1.50;1.10;;;18.40;52.60;;;;;;5045101;28;20648;-61
2020/12/01 07:22:51;;;;;;;1.48;1.20;;;18.30;52.80;;;;;;5044235;28;20223;-61
2020/12/01 07:25:53;;;;;;;0.90;0.80;;;18.20;53.00;;;;;;5027382;28;20640;-61
2020/12/01 07:28:21;;;;;;;1.10;0.90;;;18.10;53.10;;;;;;4976857;28;20261;-60
2020/12/01 07:31:11;;;;;;;0.80;0.80;;;18.10;53.30;;;;;;5027026;28;20608;-61
2020/12/01 07:33:37;;;;;;;1.50;1.13;;;18.10;53.40;;;;;;5031090;28;20274;-61
2020/12/01 07:36:26;;;;;;;1.35;0.98;;;18.00;53.40;;;;;;5027256;28;20167;-61
2020/12/01 07:39:06;;;;;;;2.13;1.48;;;18.10;53.40;;;;;;5027796;28;20644;-62
2020/12/01 07:41:31;;;;;;;1.25;0.95;;;18.10;53.40;;;;;;5027821;28;20182;-63
2020/12/01 07:44:01;;;;;;;2.22;1.13;;;18.10;53.40;;;;;;5044183;28;20210;-62
2020/12/01 07:46:27;;;;;;;1.13;0.93;;;18.10;53.30;;;;;;5044558;28;20175;-63
2020/12/01 07:49:02;;;;;;;1.10;0.88;;;18.10;53.30;;;;;;5044319;28;20963;-61
2020/12/01 07:51:31;;;;;;;1.60;1.00;;;18.20;53.30;;;;;;5026697;28;20542;-61
2020/12/01 07:53:57;;;;;;;1.17;1.02;;;18.20;53.40;;;;;;5044328;28;20179;-61
2020/12/01 07:56:22;;;;;;;1.20;1.10;;;18.10;53.50;;;;;;5044897;28;20508;-61
2020/12/01 07:59:10;;;;;;;0.85;0.70;;;18.00;53.60;;;;;;5010542;28;20179;-61
2020/12/01 08:01:36;;;;;;;3.00;0.95;;;17.90;53.80;;;;;;5044079;28;20178;-61
2020/12/01 08:04:21;;;;;;;1.08;0.95;;;17.80;53.90;;;;;;5044067;28;20207;-61
2020/12/01 08:06:58;;;;;;;1.23;0.90;;;17.80;54.00;;;;;;5044066;28;20262;-60
2020/12/01 08:09:24;;;;;;;1.10;1.00;;;17.80;54.00;;;;;;5044297;28;20960;-61
2020/12/01 08:11:49;;;;;;;2.28;1.02;;;17.80;54.10;;;;;;5044354;28;20175;-60
2020/12/01 08:14:16;;;;;;;1.10;0.93;;;17.80;54.10;;;;;;5044211;28;20190;-62
2020/12/01 08:16:42;;;;;;;1.38;0.70;;;17.70;54.10;;;;;;5026116;28;20934;-61
2020/12/01 08:19:11;;;;;;;1.10;0.88;;;17.70;54.20;;;;;;5026200;28;20929;-62
2020/12/01 08:21:39;;;;;;;1.02;0.93;;;17.70;54.30;;;;;;5010168;28;20203;-62
2020/12/01 08:24:17;;;;;;;1.00;0.88;;;17.70;54.30;;;;;;4993282;28;21010;-62
2020/12/01 08:26:43;;;;;;;1.00;0.80;;;17.70;54.30;;;;;;5026227;28;20183;-61
2020/12/01 08:29:12;;;;;;;0.50;0.50;;;17.80;54.20;;;;;;5010060;28;20296;-61
2020/12/01 08:31:56;;;;;;;0.77;0.77;;;17.80;54.00;;;;;;5043636;28;20175;-61
2020/12/01 08:34:34;;;;;;;1.00;0.90;;;17.90;53.90;;;;;;5026533;28;20172;-59
2020/12/01 08:37:02;;;;;;;1.63;1.10;;;17.90;53.90;;;;;;5026642;28;20198;-66
2020/12/01 08:39:54;;;;;;;2.08;1.17;;;17.80;54.30;;;;;;5026173;28;20313;-64
2020/12/01 08:42:38;;;;;;;2.63;1.00;;;17.80;54.60;;;;;;5043700;28;20523;-68
2020/12/01 08:45:13;;;;;;;1.98;1.02;;;17.70;54.70;;;;;;5043535;28;20232;-66
2020/12/01 08:47:40;;;;;;;3.55;1.45;;;17.60;55.30;;;;;;5044122;28;20253;-65
2020/12/01 08:50:36;;;;;;;2.28;1.20;;;17.60;55.50;;;;;;5026327;28;20167;-65
2020/12/01 08:53:12;;;;;;;2.15;0.95;;;17.60;55.40;;;;;;5006247;28;20240;-64
2020/12/01 08:55:45;;;;;;;1.65;1.20;;;17.60;55.40;;;;;;5043302;28;20181;-64
2020/12/01 08:58:24;;;;;;;3.30;1.08;;;17.70;55.40;;;;;;5043552;28;20285;-64
2020/12/01 09:01:17;;;;;;;1.92;1.05;;;17.70;55.30;;;;;;5027210;28;20175;-67
2020/12/01 09:03:57;;;;;;;2.55;1.40;;;17.70;55.30;;;;;;5028345;28;20336;-66
2020/12/01 09:06:34;;;;;;;2.63;1.38;;;17.60;55.60;;;;;;5043495;28;20229;-63
2020/12/01 09:09:05;;;;;;;2.78;1.50;;;17.60;56.00;;;;;;5043335;28;21056;-64
2020/12/01 09:22:33;;;;;;;4.18;1.42;;;17.40;55.90;;;;;;5043297;28;20336;-64
2020/12/01 09:25:25;;;;;;;2.60;1.38;;;17.50;55.90;;;;;;5043274;28;20175;-64
2020/12/01 09:27:52;;;;;;;2.75;1.55;;;17.50;55.70;;;;;;5021321;28;20325;-64
2020/12/01 09:30:25;;;;;;;5.22;1.67;;;17.60;55.70;;;;;;5044590;28;20182;-64
2020/12/01 09:32:50;;;;;;;2.65;1.60;;;17.50;55.60;;;;;;5046705;28;20190;-66
2020/12/01 09:35:16;;;;;;;5.63;2.20;;;17.50;55.70;;;;;;5046857;28;20175;-63
2020/12/01 09:37:41;;;;;;;4.50;1.48;;;17.50;55.70;;;;;;5046889;28;20172;-64
2020/12/01 09:40:07;;;;;;;3.53;1.20;;;17.40;55.70;;;;;;5046756;28;20194;-65
2020/12/01 09:42:36;;;;;;;5.65;1.70;;;17.40;55.80;;;;;;5046797;28;20207;-65
2020/12/01 09:45:21;;;;;;;2.30;1.23;;;17.40;55.90;;;;;;5046489;28;20179;-64
2020/12/01 09:47:52;;;;;;;4.40;1.50;;;17.30;55.90;;;;;;5046486;28;20258;-65
2020/12/01 09:50:26;;;;;;;3.47;1.30;;;17.40;55.90;;;;;;5046452;28;20226;-65
2020/12/01 09:58:37;;;;;;;2.65;1.10;;;17.50;55.70;;;;;;5028454;28;20183;-64
2020/12/01 10:15:27;;;;;;;3.90;1.50;;;17.30;55.90;;;;;;5046142;28;20190;-65
2020/12/01 10:36:18;;;;;;;2.63;1.25;;;17.30;56.20;;;;;;5045743;28;20205;-65
2020/12/01 10:38:44;;;;;;;3.60;1.50;;;17.20;56.20;;;;;;5045185;28;20214;-68
2020/12/01 10:41:10;;;;;;;4.63;1.73;;;17.20;56.30;;;;;;5054224;28;20211;-67
2020/12/01 10:43:36;;;;;;;4.43;1.60;;;17.20;56.40;;;;;;5050721;28;20306;-67
2020/12/01 10:46:02;;;;;;;3.40;1.67;;;17.30;56.50;;;;;;5065476;28;20638;-66
2020/12/01 10:48:27;;;;;;;2.90;1.50;;;17.20;56.40;;;;;;5055028;28;20604;-65
2020/12/01 10:50:53;;;;;;;4.40;1.73;;;17.30;56.50;;;;;;5045328;28;20233;-66
2020/12/01 10:53:18;;;;;;;4.95;2.17;;;17.20;56.50;;;;;;5045161;28;20171;-64
2020/12/01 10:55:44;;;;;;;5.00;1.75;;;17.20;56.50;;;;;;5045422;28;20274;-64
2020/12/01 10:58:09;;;;;;;5.32;2.20;;;17.30;56.60;;;;;;5064824;28;20210;-65
2020/12/01 11:00:35;;;;;;;4.72;1.60;;;17.20;56.70;;;;;;5065335;28;20694;-64
2020/12/01 11:03:00;;;;;;;4.97;1.83;;;17.20;56.80;;;;;;5065128;28;20206;-65
2020/12/01 11:05:28;;;;;;;3.13;1.67;;;17.20;56.80;;;;;;5065277;28;20174;-69
2020/12/01 11:07:53;;;;;;;5.43;2.10;;;17.20;56.80;;;;;;5049898;28;20288;-65
2020/12/01 11:10:19;;;;;;;6.38;2.17;;;17.30;56.90;;;;;;5045120;28;20680;-66
2020/12/01 11:12:45;;;;;;;6.55;2.03;;;17.30;56.90;;;;;;5044577;28;20175;-66
2020/12/01 11:15:10;;;;;;;5.45;1.80;;;17.30;56.80;;;;;;5063938;28;20631;-67
2020/12/01 11:17:36;;;;;;;5.13;1.83;;;17.40;56.80;;;;;;5047263;28;20177;-69
2020/12/01 11:20:03;;;;;;;3.67;1.40;;;17.40;56.90;;;;;;5064751;28;20239;-68
2020/12/01 11:22:29;;;;;;;4.43;1.73;;;17.40;57.00;;;;;;5060197;28;20190;-69
2020/12/01 11:24:54;;;;;;;4.57;1.83;;;17.40;57.10;;;;;;5052241;28;20550;-70
2020/12/01 11:27:20;;;;;;;6.45;1.95;;;17.30;57.10;;;;;;5036830;28;20179;-67
2020/12/01 11:29:45;;;;;;;3.15;1.40;;;17.20;57.20;;;;;;5052626;28;20213;-67
2020/12/01 11:32:11;;;;;;;3.45;1.55;;;17.30;57.30;;;;;;5059761;28;20516;-67
2020/12/01 11:34:36;;;;;;;4.43;1.88;;;17.30;57.30;;;;;;5064784;28;20232;-67
2020/12/01 11:37:02;;;;;;;3.20;1.50;;;17.30;57.20;;;;;;5046811;28;20178;-65
2020/12/01 11:39:28;;;;;;;4.47;2.15;;;17.40;57.20;;;;;;5064618;28;20697;-69
2020/12/01 11:41:53;;;;;;;5.00;2.00;;;17.40;57.20;;;;;;5064774;28;20209;-68
2020/12/01 11:44:19;;;;;;;5.03;2.20;;;17.40;57.20;;;;;;5064219;28;20205;-65
2020/12/01 11:46:44;;;;;;;4.82;2.42;;;17.40;57.30;;;;;;5064577;28;20187;-67
2020/12/01 11:49:10;;;;;;;4.50;1.90;;;17.30;57.30;;;;;;5045991;28;20199;-63
2020/12/01 11:51:37;;;;;;;5.07;2.47;;;17.30;57.40;;;;;;5044531;28;20167;-68
2020/12/01 11:54:03;;;;;;;6.05;2.58;;;17.20;57.50;;;;;;5026592;28;20751;-66
2020/12/01 11:56:29;;;;;;;6.47;2.55;;;17.30;57.60;;;;;;5027103;28;20237;-65
2020/12/01 11:58:54;;;;;;;5.20;1.90;;;17.30;57.50;;;;;;5044623;28;20203;-65
2020/12/01 12:01:20;;;;;;;4.78;2.08;;;17.30;57.40;;;;;;5044118;28;20206;-65
2020/12/01 12:03:46;;;;;;;4.72;2.50;;;17.40;57.50;;;;;;5044134;28;20199;-65
2020/12/01 12:06:12;;;;;;;5.07;2.33;;;17.40;57.40;;;;;;5044282;28;20687;-65
2020/12/01 12:08:38;;;;;;;3.55;1.88;;;17.50;57.30;;;;;;5010186;28;20278;-65
2020/12/01 12:11:03;;;;;;;5.35;2.30;;;17.50;57.30;;;;;;5026796;28;20174;-64
2020/12/01 12:13:29;;;;;;;5.38;1.80;;;17.50;57.20;;;;;;5044286;28;20993;-65
2020/12/01 12:15:55;;;;;;;4.93;2.10;;;17.40;57.20;;;;;;5044242;28;20203;-68
2020/12/01 12:18:20;;;;;;;5.55;2.10;;;17.40;57.30;;;;;;5044055;28;20336;-67
2020/12/01 12:20:46;;;;;;;6.05;2.63;;;17.40;57.20;;;;;;5026479;28;20179;-68
2020/12/01 12:23:11;;;;;;;6.15;2.33;;;17.40;57.20;;;;;;5043691;28;20214;-68
2020/12/01 12:25:37;;;;;;;9.35;2.72;;;17.30;57.20;;;;;;5026144;28;20187;-68
2020/12/01 12:28:03;;;;;;;5.32;2.33;;;17.40;57.30;;;;;;5043528;28;20522;-68
2020/12/01 12:30:29;;;;;;;7.90;2.97;;;17.40;57.20;;;;;;5043702;28;20175;-68
2020/12/01 12:32:54;;;;;;;4.93;2.33;;;17.40;57.20;;;;;;5044011;28;20261;-68
2020/12/01 12:35:20;;;;;;;4.70;2.35;;;17.40;57.10;;;;;;5043898;28;20183;-67
2020/12/01 12:37:45;;;;;;;6.60;2.30;;;17.50;57.10;;;;;;5009647;28;20423;-67
2020/12/01 12:40:11;;;;;;;6.47;2.90;;;17.40;57.00;;;;;;5043603;28;20246;-68
2020/12/01 12:42:37;;;;;;;5.95;2.28;;;17.40;56.90;;;;;;5043510;28;20268;-68
2020/12/01 12:45:04;;;;;;;6.28;2.25;;;17.40;56.90;;;;;;5043403;28;20286;-69
2020/12/01 12:47:29;;;;;;;5.05;2.30;;;17.40;57.00;;;;;;5048089;28;20205;-68
2020/12/01 12:49:55;;;;;;;4.45;2.10;;;17.30;57.00;;;;;;5046079;28;20206;-68
2020/12/01 12:52:20;;;;;;;4.45;2.45;;;17.40;57.00;;;;;;5045793;28;20670;-68
2020/12/01 12:54:46;;;;;;;5.75;2.40;;;17.30;57.00;;;;;;5063171;28;20576;-67
2020/12/01 12:57:12;;;;;;;5.40;2.70;;;17.50;57.00;;;;;;5063600;28;20175;-67
2020/12/01 12:59:37;;;;;;;5.03;2.20;;;17.40;56.90;;;;;;5063840;28;20276;-67
2020/12/01 13:02:03;;;;;;;4.88;2.25;;;17.40;56.90;;;;;;5063224;28;20179;-68
2020/12/01 13:04:28;;;;;;;4.18;2.28;;;17.50;56.90;;;;;;5063626;28;20201;-67
2020/12/01 13:06:54;;;;;;;6.63;2.50;;;17.40;56.90;;;;;;5067609;28;20535;-67
2020/12/01 13:09:23;;;;;;;4.93;2.35;;;17.40;56.90;;;;;;5067568;28;20170;-69
2020/12/01 13:11:49;;;;;;;4.72;2.30;;;17.30;56.90;;;;;;5067386;28;20166;-68
2020/12/01 13:14:14;;;;;;;4.97;2.17;;;17.40;57.00;;;;;;5032856;28;20550;-69
2020/12/01 13:16:40;;;;;;;5.70;2.40;;;17.30;57.10;;;;;;5067306;28;20179;-68
2020/12/01 13:19:05;;;;;;;4.22;2.22;;;17.30;57.00;;;;;;5049360;28;20627;-67
2020/12/01 13:21:33;;;;;;;7.22;2.85;;;17.30;57.00;;;;;;5067195;28;20550;-68
2020/12/01 13:23:58;;;;;;;4.32;2.10;;;17.30;56.90;;;;;;5066636;28;20202;-68
2020/12/01 13:26:24;;;;;;;5.50;2.67;;;17.40;56.90;;;;;;5066771;28;20194;-68
2020/12/01 13:28:49;;;;;;;5.05;2.15;;;17.40;56.90;;;;;;5066982;28;20179;-68
2020/12/01 13:31:15;;;;;;;6.00;2.63;;;17.40;56.90;;;;;;5067102;28;20589;-68
2020/12/01 13:33:43;;;;;;;4.65;2.45;;;17.40;56.90;;;;;;5048793;28;20178;-66
2020/12/01 13:36:09;;;;;;;5.05;2.17;;;17.40;56.90;;;;;;5066850;28;20636;-64
2020/12/01 13:38:35;;;;;;;3.15;1.92;;;17.30;57.00;;;;;;5066695;28;20217;-66
2020/12/01 13:41:00;;;;;;;4.60;2.20;;;17.30;57.20;;;;;;5066785;28;20171;-64
2020/12/01 13:43:26;;;;;;;10.27;2.70;;;17.30;57.30;;;;;;5066744;28;20206;-65
2020/12/01 13:45:51;;;;;;;5.55;2.30;;;17.30;57.30;;;;;;5066962;28;20269;-65
2020/12/01 13:48:17;;;;;;;7.13;2.38;;;17.30;57.10;;;;;;5055496;28;20186;-65
2020/12/01 13:50:42;;;;;;;7.30;2.53;;;17.40;56.50;;;;;;5046565;28;20175;-64